Terminal Aerodrome Forecast
Issued by NWS

Home | Current Version | Previous Version | Text Only | Print | Product List | Glossary On
Versions: 1 2 3 4 5 6 7 8 9 10 11 12 13 14 15 16 17 18 19 20 21 22 23 24 25 26
000
FTUS43 KDMX 221740
TAFOTM
TAF
KOTM 221740Z 2218/2318 09010KT 1 1/2SM -FZDZ BR OVC009
     FM230100 11008KT 1/2SM -DZ FG OVC002
     FM230600 16005KT 1/2SM -DZ FG OVC003
     FM230900 23006KT 1SM BR OVC004
     FM231300 28008KT 2SM BR BKN004
     FM231700 30009KT P6SM BKN130=

USA.gov is the U.S. government's official web portal to all federal, state and local government web resources and services.